createdAt,value
2023-05-10T00:00:26.540Z,65.22
2023-05-10T00:03:11.154Z,65.91
2023-05-10T00:05:38.743Z,65.48
2023-05-10T00:08:06.638Z,65.62
2023-05-10T00:10:33.920Z,65.75
2023-05-10T00:13:01.655Z,66.05
2023-05-10T00:15:28.949Z,66.65
2023-05-10T00:17:56.979Z,66.89
2023-05-10T00:20:25.957Z,67.01
2023-05-10T00:22:53.592Z,66.89
2023-05-10T00:25:20.828Z,66.96
2023-05-10T00:27:48.538Z,67.21
2023-05-10T00:30:16.155Z,67.90
2023-05-10T00:32:44.101Z,68.06
2023-05-10T00:35:11.430Z,68.35
2023-05-10T00:37:40.594Z,68.54
2023-05-10T00:40:08.590Z,68.54
2023-05-10T00:42:36.408Z,68.87
2023-05-10T00:45:04.090Z,69.01
2023-05-10T00:47:33.170Z,68.76
2023-05-10T00:50:01.231Z,69.23
2023-05-10T00:52:29.458Z,69.51
2023-05-10T00:54:58.704Z,69.92
2023-05-10T00:57:26.309Z,69.66
2023-05-10T00:59:54.661Z,69.19
2023-05-10T01:02:22.353Z,69.09
2023-05-10T01:04:50.652Z,69.08
2023-05-10T01:07:18.446Z,69.29
2023-05-10T01:09:46.188Z,69.29
2023-05-10T01:12:16.383Z,69.03
2023-05-10T01:14:44.221Z,68.80
2023-05-10T01:17:13.409Z,68.51
2023-05-10T01:19:41.054Z,68.02
2023-05-10T01:22:23.351Z,67.54
2023-05-10T01:25:27.419Z,67.81
2023-05-10T01:28:24.990Z,68.25
2023-05-10T01:31:16.720Z,68.09
2023-05-10T01:33:49.813Z,67.50
2023-05-10T01:36:24.309Z,66.84
2023-05-10T01:38:56.889Z,67.36
2023-05-10T01:41:34.444Z,67.02
2023-05-10T01:44:07.450Z,66.71
2023-05-10T01:46:38.239Z,67.22
2023-05-10T01:49:10.712Z,67.75
2023-05-10T01:51:42.893Z,66.72
2023-05-10T01:54:10.649Z,67.01
2023-05-10T01:56:40.577Z,66.81
2023-05-10T01:59:14.148Z,67.35
2023-05-10T02:01:42.361Z,66.98
2023-05-10T02:04:16.786Z,68.40
2023-05-10T02:06:46.160Z,69.45
2023-05-10T02:09:15.267Z,69.57
2023-05-10T02:11:44.756Z,70.00
2023-05-10T02:14:13.675Z,70.77
2023-05-10T02:16:42.384Z,71.67
2023-05-10T02:19:13.179Z,71.92
2023-05-10T02:21:42.591Z,73.45
2023-05-10T02:24:12.496Z,73.60
2023-05-10T02:26:40.422Z,73.79
2023-05-10T02:29:10.266Z,74.50
2023-05-10T02:31:37.986Z,73.91
2023-05-10T02:34:08.942Z,73.34
2023-05-10T02:36:39.327Z,73.02
2023-05-10T02:39:08.813Z,73.40
2023-05-10T02:41:37.301Z,72.70
2023-05-10T02:44:08.580Z,72.87
2023-05-10T02:46:36.071Z,73.42
2023-05-10T02:49:03.949Z,73.69
2023-05-10T02:51:33.665Z,74.30
2023-05-10T02:54:11.367Z,74.47
2023-05-10T02:56:47.733Z,74.23
2023-05-10T02:59:15.545Z,74.21
2023-05-10T03:01:43.059Z,74.69
2023-05-10T03:04:10.839Z,75.02
2023-05-10T03:06:38.418Z,74.89
2023-05-10T03:09:08.329Z,74.70
2023-05-10T03:11:48.254Z,74.83
2023-05-10T03:14:27.213Z,75.31
2023-05-10T03:17:09.172Z,75.38
2023-05-10T03:19:44.470Z,75.80
2023-05-10T03:22:17.400Z,75.93
2023-05-10T03:24:47.750Z,75.59
2023-05-10T03:27:16.293Z,75.94
2023-05-10T03:29:45.738Z,75.32
2023-05-10T03:32:13.151Z,76.22
2023-05-10T03:34:43.252Z,76.37
2023-05-10T03:37:11.014Z,76.28
2023-05-10T03:39:39.093Z,76.26
2023-05-10T03:42:07.933Z,76.47
2023-05-10T03:44:35.704Z,76.32
2023-05-10T03:47:03.174Z,76.09
2023-05-10T03:49:31.057Z,75.56
2023-05-10T03:51:58.585Z,75.67
2023-05-10T03:54:26.440Z,75.01
2023-05-10T03:56:53.987Z,75.24
2023-05-10T03:59:23.307Z,75.16
2023-05-10T04:01:50.779Z,74.66
2023-05-10T04:04:18.549Z,74.98
2023-05-10T04:06:45.990Z,74.46
2023-05-10T04:09:13.938Z,74.39
2023-05-10T04:11:41.303Z,74.09
2023-05-10T04:14:09.126Z,74.07
2023-05-10T04:16:37.916Z,73.81
2023-05-10T04:19:05.668Z,74.06
2023-05-10T04:21:33.113Z,73.46
2023-05-10T04:24:00.805Z,73.02
2023-05-10T04:26:28.577Z,73.17
2023-05-10T04:28:56.372Z,73.66
2023-05-10T04:31:23.846Z,72.81
2023-05-10T04:33:53.437Z,71.84
2023-05-10T04:36:20.885Z,72.05
2023-05-10T04:38:48.490Z,71.86
2023-05-10T04:41:15.961Z,72.17
2023-05-10T04:43:43.656Z,72.65
2023-05-10T04:46:11.059Z,72.19
2023-05-10T04:48:38.923Z,71.32
2023-05-10T04:51:07.642Z,72.02
2023-05-10T04:53:35.343Z,71.41
2023-05-10T04:56:02.901Z,71.17
2023-05-10T04:58:30.890Z,70.86
2023-05-10T05:00:58.302Z,71.38
2023-05-10T05:03:26.150Z,70.50
2023-05-10T05:05:53.577Z,70.25
2023-05-10T05:08:22.357Z,69.96
2023-05-10T05:10:50.022Z,69.77
2023-05-10T05:13:17.444Z,68.63
2023-05-10T05:15:45.184Z,69.93
2023-05-10T05:18:12.499Z,69.08
2023-05-10T05:20:40.305Z,69.05
2023-05-10T05:23:07.679Z,68.70
2023-05-10T05:25:37.100Z,66.66
2023-05-10T05:28:04.789Z,67.32
2023-05-10T05:30:32.573Z,66.94
2023-05-10T05:32:59.927Z,66.47
2023-05-10T05:35:27.786Z,66.59
2023-05-10T05:37:55.235Z,66.43
2023-05-10T05:40:23.147Z,65.46
2023-05-10T05:42:52.203Z,65.28
2023-05-10T05:45:20.110Z,65.26
2023-05-10T05:47:47.643Z,64.96
2023-05-10T05:50:15.553Z,65.55
2023-05-10T05:52:43.838Z,63.34
2023-05-10T05:55:11.399Z,63.95
2023-05-10T05:57:39.474Z,63.26
2023-05-10T06:00:09.925Z,63.72
2023-05-10T06:02:38.053Z,62.38
2023-05-10T06:05:06.761Z,63.53
2023-05-10T06:07:34.622Z,62.57
2023-05-10T06:10:02.163Z,62.26
2023-05-10T06:12:29.963Z,61.35
2023-05-10T06:14:57.519Z,61.19
2023-05-10T06:17:28.317Z,61.15
2023-05-10T06:19:55.902Z,60.75
2023-05-10T06:22:23.805Z,60.66
2023-05-10T06:24:51.253Z,59.68
2023-05-10T06:27:18.971Z,59.54
2023-05-10T06:29:46.276Z,59.33
2023-05-10T06:32:13.931Z,59.15
2023-05-10T06:34:42.666Z,58.58
2023-05-10T06:37:10.496Z,59.26
2023-05-10T06:39:37.882Z,57.48
2023-05-10T06:42:05.839Z,57.63
2023-05-10T06:44:33.203Z,57.93
2023-05-10T06:47:01.082Z,56.23
2023-05-10T06:49:28.538Z,57.66
2023-05-10T06:51:58.199Z,58.54
2023-05-10T06:54:25.766Z,56.16
2023-05-10T06:56:53.681Z,54.44
2023-05-10T06:59:21.002Z,57.68
2023-05-10T07:01:48.862Z,54.58
2023-05-10T07:04:16.376Z,54.67
2023-05-10T07:06:44.278Z,54.23
2023-05-10T07:09:13.110Z,54.35
2023-05-10T07:11:40.730Z,53.99
2023-05-10T07:14:08.078Z,53.31
2023-05-10T07:16:35.952Z,52.50
2023-05-10T07:19:03.352Z,53.12
2023-05-10T07:21:31.104Z,53.61
2023-05-10T07:23:58.442Z,52.98
2023-05-10T07:26:27.722Z,53.29
2023-05-10T07:28:55.077Z,53.62
2023-05-10T07:31:22.814Z,53.53
2023-05-10T07:33:50.179Z,52.88
2023-05-10T07:36:17.911Z,52.01
2023-05-10T07:38:45.280Z,51.22
2023-05-10T07:41:16.325Z,52.74
2023-05-10T07:43:45.088Z,51.60
2023-05-10T07:46:12.894Z,51.12
2023-05-10T07:48:40.301Z,50.44
2023-05-10T07:51:08.052Z,52.01
2023-05-10T07:53:35.957Z,50.14
2023-05-10T07:56:23.399Z,51.69
2023-05-10T07:58:52.342Z,52.80
2023-05-10T08:01:20.022Z,51.33
2023-05-10T08:03:52.510Z,51.50
2023-05-10T08:06:21.393Z,51.39
2023-05-10T08:08:49.525Z,50.76
2023-05-10T08:11:17.563Z,51.57
2023-05-10T08:13:45.020Z,52.18
2023-05-10T08:16:17.850Z,51.21
2023-05-10T08:18:46.635Z,51.31
2023-05-10T08:21:20.812Z,51.99
2023-05-10T08:23:50.909Z,50.55
2023-05-10T08:26:20.040Z,51.27
2023-05-10T08:28:47.542Z,51.84
2023-05-10T08:31:21.228Z,51.04
2023-05-10T08:33:48.566Z,50.27
2023-05-10T08:36:16.241Z,52.18
2023-05-10T08:38:43.620Z,48.34
2023-05-10T08:41:12.055Z,47.93
2023-05-10T08:43:40.195Z,50.95
2023-05-10T08:46:09.518Z,49.67
2023-05-10T08:48:39.732Z,50.42
2023-05-10T08:51:08.858Z,49.18
2023-05-10T08:53:38.059Z,49.91
2023-05-10T08:56:06.818Z,48.54
2023-05-10T08:58:34.460Z,50.58
2023-05-10T09:01:02.579Z,50.70
2023-05-10T09:03:30.717Z,49.71
2023-05-10T09:06:00.169Z,48.30
2023-05-10T09:08:27.736Z,47.13
2023-05-10T09:10:55.813Z,48.60
2023-05-10T09:13:24.491Z,48.47
2023-05-10T09:15:53.033Z,48.58
2023-05-10T09:18:20.553Z,50.68
2023-05-10T09:20:50.059Z,46.64
2023-05-10T09:23:18.888Z,46.87
2023-05-10T09:25:46.807Z,47.62
2023-05-10T09:28:14.266Z,47.80
2023-05-10T09:30:42.022Z,47.59
2023-05-10T09:33:09.566Z,47.32
2023-05-10T09:35:37.348Z,49.02
2023-05-10T09:38:06.157Z,47.69
2023-05-10T09:40:35.298Z,48.26
2023-05-10T09:43:04.540Z,48.95
2023-05-10T09:45:36.191Z,47.41
2023-05-10T09:48:06.358Z,48.78
2023-05-10T09:50:34.345Z,47.51
2023-05-10T09:53:02.799Z,45.99
2023-05-10T09:55:42.776Z,46.46
2023-05-10T09:58:10.071Z,45.34
2023-05-10T10:00:39.786Z,46.88
2023-05-10T10:03:12.970Z,47.81
2023-05-10T10:05:42.037Z,48.56
2023-05-10T10:08:09.651Z,48.46
2023-05-10T10:10:37.606Z,46.77
2023-05-10T10:13:06.609Z,46.80
2023-05-10T10:15:35.269Z,47.07
2023-05-10T10:18:02.795Z,45.84
2023-05-10T10:20:30.848Z,46.25
2023-05-10T10:22:58.260Z,46.56
2023-05-10T10:25:26.342Z,45.50
2023-05-10T10:28:11.345Z,45.59
2023-05-10T10:30:43.577Z,45.68
2023-05-10T10:33:34.862Z,45.10
2023-05-10T10:36:04.155Z,44.16
2023-05-10T10:38:38.662Z,46.38
2023-05-10T10:41:11.936Z,44.45
2023-05-10T10:43:40.727Z,44.97
2023-05-10T10:46:13.180Z,46.35
2023-05-10T10:48:41.118Z,47.96
2023-05-10T10:51:10.714Z,45.43
2023-05-10T10:53:43.697Z,43.77
2023-05-10T10:56:11.574Z,44.26
2023-05-10T10:58:40.929Z,42.65
2023-05-10T11:01:14.407Z,44.18
2023-05-10T11:03:42.494Z,44.45
2023-05-10T11:06:10.432Z,46.29
2023-05-10T11:08:43.596Z,48.23
2023-05-10T11:11:15.741Z,46.32
2023-05-10T11:13:48.386Z,43.07
2023-05-10T11:16:19.453Z,43.54
2023-05-10T11:18:59.628Z,44.58
2023-05-10T11:21:27.445Z,45.99
2023-05-10T11:23:56.125Z,44.72
2023-05-10T11:26:24.862Z,46.73
2023-05-10T11:28:55.161Z,43.61
2023-05-10T11:31:23.737Z,44.27
2023-05-10T11:33:53.123Z,42.35
2023-05-10T11:36:22.204Z,45.31
2023-05-10T11:38:49.707Z,42.85
2023-05-10T11:41:19.906Z,42.48
2023-05-10T11:43:47.827Z,42.62
2023-05-10T11:46:20.432Z,39.45
2023-05-10T11:48:50.039Z,40.43
2023-05-10T11:51:21.502Z,41.35
2023-05-10T11:53:48.841Z,39.37
2023-05-10T11:56:19.440Z,40.66
2023-05-10T11:58:46.759Z,40.21
2023-05-10T12:01:18.067Z,38.88
2023-05-10T12:03:45.910Z,37.82
2023-05-10T12:06:13.822Z,40.67
2023-05-10T12:08:45.871Z,42.67
2023-05-10T12:11:14.611Z,41.02
2023-05-10T12:13:44.185Z,41.42
2023-05-10T12:16:17.643Z,41.49
2023-05-10T12:18:45.558Z,42.28
2023-05-10T12:21:13.608Z,41.63
2023-05-10T12:23:41.055Z,40.36
2023-05-10T12:26:10.660Z,40.18
2023-05-10T12:28:38.930Z,39.00
2023-05-10T12:31:07.933Z,40.51
2023-05-10T12:33:40.939Z,41.46
2023-05-10T12:36:09.366Z,42.74
2023-05-10T12:38:38.181Z,44.13
2023-05-10T12:41:07.669Z,42.23
2023-05-10T12:43:35.989Z,42.52
2023-05-10T12:46:07.943Z,43.09
2023-05-10T12:48:35.840Z,43.05
2023-05-10T12:51:05.774Z,42.51
2023-05-10T12:53:33.182Z,43.00
2023-05-10T12:56:00.882Z,42.17
2023-05-10T12:58:35.488Z,42.39
2023-05-10T13:01:04.336Z,43.23
2023-05-10T13:03:31.905Z,44.29
2023-05-10T13:06:00.484Z,44.36
2023-05-10T13:08:32.915Z,43.67
2023-05-10T13:14:47.572Z,43.10
2023-05-10T13:17:34.238Z,43.56
2023-05-10T13:20:01.800Z,42.50
2023-05-10T13:22:39.819Z,42.49
2023-05-10T13:25:10.214Z,41.39
2023-05-10T13:27:38.003Z,42.84
2023-05-10T13:30:06.722Z,42.23
2023-05-10T13:32:34.967Z,41.33
2023-05-10T13:35:03.028Z,41.96
2023-05-10T13:37:31.072Z,40.67
2023-05-10T13:39:58.432Z,41.04
2023-05-10T13:42:27.774Z,42.11
2023-05-10T13:44:55.528Z,40.33
2023-05-10T13:47:23.328Z,39.81
2023-05-10T13:49:50.855Z,42.13
2023-05-10T13:52:18.727Z,42.46
2023-05-10T13:54:46.056Z,43.16
2023-05-10T13:57:13.910Z,44.34
2023-05-10T13:59:42.687Z,41.97
2023-05-10T14:02:10.461Z,42.47
2023-05-10T14:04:38.043Z,41.77
2023-05-10T14:07:05.769Z,43.09
2023-05-10T14:09:33.230Z,41.32
2023-05-10T14:12:01.155Z,42.15
2023-05-10T14:14:28.707Z,42.80
2023-05-10T14:16:58.310Z,44.97
2023-05-10T14:19:26.021Z,41.66
2023-05-10T14:21:54.118Z,42.32
2023-05-10T14:24:21.666Z,41.80
2023-05-10T14:26:49.891Z,44.43
2023-05-10T14:29:17.648Z,42.62
2023-05-10T14:31:45.576Z,40.76
2023-05-10T14:34:14.588Z,42.52
2023-05-10T14:36:42.428Z,43.91
2023-05-10T14:39:10.071Z,44.51
2023-05-10T14:41:37.833Z,40.80
2023-05-10T14:44:05.337Z,40.53
2023-05-10T14:46:33.408Z,41.21
2023-05-10T14:49:00.897Z,40.09
2023-05-10T14:51:30.162Z,40.50
2023-05-10T14:53:57.586Z,40.64
2023-05-10T14:56:25.561Z,41.12
2023-05-10T14:58:53.625Z,40.72
2023-05-10T15:01:22.524Z,41.24
2023-05-10T15:03:50.235Z,40.84
2023-05-10T15:06:24.074Z,39.75
2023-05-10T15:08:53.096Z,40.37
2023-05-10T15:11:20.945Z,40.79
2023-05-10T15:13:48.469Z,42.47
2023-05-10T15:16:16.383Z,41.04
2023-05-10T15:18:43.927Z,39.35
2023-05-10T15:21:11.831Z,41.45
2023-05-10T15:23:39.484Z,41.34
2023-05-10T15:26:08.706Z,40.42
2023-05-10T15:28:36.171Z,42.07
2023-05-10T15:31:03.976Z,42.76
2023-05-10T15:33:31.500Z,41.09
2023-05-10T15:35:59.441Z,40.34
2023-05-10T15:38:26.891Z,40.92
2023-05-10T15:40:57.854Z,40.97
2023-05-10T15:43:26.594Z,42.48
2023-05-10T15:45:54.472Z,41.31
2023-05-10T15:48:22.146Z,40.51
2023-05-10T15:50:50.101Z,41.86
2023-05-10T15:53:17.641Z,40.26
2023-05-10T15:55:45.333Z,41.13
2023-05-10T15:58:12.849Z,39.50
2023-05-10T16:00:42.355Z,40.68
2023-05-10T16:03:09.795Z,39.57
2023-05-10T16:05:37.696Z,40.80
2023-05-10T16:08:05.583Z,40.24
2023-05-10T16:10:33.432Z,39.81
2023-05-10T16:13:01.044Z,40.52
2023-05-10T16:15:28.655Z,41.38
2023-05-10T16:17:57.842Z,40.93
2023-05-10T16:20:26.058Z,42.23
2023-05-10T16:22:53.496Z,41.38
2023-05-10T16:25:21.210Z,39.77
2023-05-10T16:27:48.407Z,40.59
2023-05-10T16:30:16.285Z,41.66
2023-05-10T16:32:43.773Z,40.05
2023-05-10T16:35:12.976Z,40.79
2023-05-10T16:37:40.652Z,40.43
2023-05-10T16:40:09.047Z,40.40
2023-05-10T16:42:37.164Z,41.53
2023-05-10T16:45:05.273Z,41.84
2023-05-10T16:47:33.035Z,41.70
2023-05-10T16:50:00.882Z,43.54
2023-05-10T16:52:30.427Z,42.80
2023-05-10T16:54:58.080Z,42.97
2023-05-10T16:57:26.349Z,42.03
2023-05-10T16:59:54.164Z,42.22
2023-05-10T17:02:22.337Z,42.44
2023-05-10T17:04:50.410Z,41.94
2023-05-10T17:07:21.067Z,43.10
2023-05-10T17:09:49.995Z,42.72
2023-05-10T17:12:17.958Z,42.85
2023-05-10T17:14:45.249Z,43.02
2023-05-10T17:17:13.299Z,42.89
2023-05-10T17:19:40.735Z,43.01
2023-05-10T17:22:08.547Z,42.89
2023-05-10T17:24:35.933Z,43.42
2023-05-10T17:27:05.021Z,43.83
2023-05-10T17:29:32.490Z,44.23
2023-05-10T17:32:00.398Z,44.04
2023-05-10T17:34:27.975Z,44.55
2023-05-10T17:36:55.892Z,44.56
2023-05-10T17:39:23.247Z,44.33
2023-05-10T17:41:51.025Z,45.15
2023-05-10T17:44:19.864Z,45.44
2023-05-10T17:46:47.892Z,45.62
2023-05-10T17:49:15.320Z,45.34
2023-05-10T17:51:43.198Z,44.83
2023-05-10T17:54:10.599Z,44.48
2023-05-10T17:56:38.524Z,44.39
2023-05-10T17:59:06.062Z,44.72
2023-05-10T18:01:35.928Z,44.64
2023-05-10T18:04:06.902Z,44.75
2023-05-10T18:06:36.714Z,45.26
2023-05-10T18:09:04.439Z,45.59
2023-05-10T18:11:32.290Z,45.86
2023-05-10T18:13:59.657Z,46.98
2023-05-10T18:16:27.430Z,47.29
2023-05-10T18:18:56.311Z,47.52
2023-05-10T18:21:24.159Z,47.68
2023-05-10T18:23:51.578Z,47.89
2023-05-10T18:26:19.387Z,48.37
2023-05-10T18:28:46.734Z,48.44
2023-05-10T18:31:14.795Z,48.64
2023-05-10T18:33:42.346Z,48.81
2023-05-10T18:36:11.631Z,48.85
2023-05-10T18:38:39.018Z,48.77
2023-05-10T18:41:06.888Z,48.57
2023-05-10T18:43:34.595Z,48.97
2023-05-10T18:46:02.270Z,49.58
2023-05-10T18:48:30.165Z,49.03
2023-05-10T18:50:57.798Z,49.46
2023-05-10T18:53:26.660Z,49.39
2023-05-10T18:55:57.588Z,49.39
2023-05-10T18:58:25.386Z,50.04
2023-05-10T19:00:53.393Z,50.09
2023-05-10T19:03:21.230Z,50.08
2023-05-10T19:05:49.245Z,49.90
2023-05-10T19:08:16.661Z,50.00
2023-05-10T19:10:46.082Z,50.13
2023-05-10T19:13:13.698Z,49.78
2023-05-10T19:15:41.571Z,49.86
2023-05-10T19:18:09.750Z,50.81
2023-05-10T19:20:40.241Z,50.47
2023-05-10T19:23:10.349Z,50.60
2023-05-10T19:25:38.240Z,50.60
2023-05-10T19:28:07.158Z,50.32
2023-05-10T19:30:35.260Z,50.38
2023-05-10T19:33:03.758Z,50.23
2023-05-10T19:35:32.084Z,50.32
2023-05-10T19:37:59.605Z,49.96
2023-05-10T19:40:27.583Z,49.66
2023-05-10T19:42:55.697Z,49.69
2023-05-10T19:45:25.199Z,49.75
2023-05-10T19:47:52.868Z,49.65
2023-05-10T19:50:20.766Z,49.49
2023-05-10T19:52:48.242Z,50.02
2023-05-10T19:55:26.162Z,49.77
2023-05-10T19:57:53.609Z,49.12
2023-05-10T20:00:21.655Z,49.25
2023-05-10T20:02:50.950Z,49.57
2023-05-10T20:05:19.194Z,49.48
2023-05-10T20:07:46.969Z,49.44
2023-05-10T20:10:14.735Z,48.79
2023-05-10T20:12:42.175Z,48.69
2023-05-10T20:15:10.931Z,49.04
2023-05-10T20:17:38.626Z,49.16
2023-05-10T20:20:08.544Z,49.16
2023-05-10T20:22:35.953Z,48.82
2023-05-10T20:25:04.303Z,49.03
2023-05-10T20:27:31.749Z,48.88
2023-05-10T20:29:59.723Z,49.45
2023-05-10T20:32:27.034Z,49.71
2023-05-10T20:34:54.809Z,49.63
2023-05-10T20:37:24.202Z,49.68
2023-05-10T20:39:51.948Z,49.76
2023-05-10T20:42:19.325Z,49.05
2023-05-10T20:44:47.090Z,49.44
2023-05-10T20:47:15.474Z,49.46
2023-05-10T20:49:43.587Z,49.80
2023-05-10T20:52:11.649Z,49.62
2023-05-10T20:54:40.802Z,49.22
2023-05-10T20:57:08.252Z,50.16
2023-05-10T20:59:36.097Z,50.39
2023-05-10T21:02:03.590Z,51.07
2023-05-10T21:04:31.465Z,50.99
2023-05-10T21:06:58.908Z,50.70
2023-05-10T21:09:26.675Z,51.13
2023-05-10T21:11:55.715Z,51.29
2023-05-10T21:14:23.496Z,51.94
2023-05-10T21:16:53.730Z,53.46
2023-05-10T21:19:21.527Z,55.70
2023-05-10T21:21:48.986Z,57.94
2023-05-10T21:24:16.906Z,58.99
2023-05-10T21:26:44.781Z,60.08
2023-05-10T21:29:14.271Z,60.91
2023-05-10T21:31:41.552Z,60.04
2023-05-10T21:34:09.340Z,59.53
2023-05-10T21:36:36.911Z,60.56
2023-05-10T21:39:04.810Z,60.45
2023-05-10T21:41:32.205Z,59.74
2023-05-10T21:44:00.272Z,59.91
2023-05-10T21:46:29.062Z,60.56
2023-05-10T21:48:56.874Z,59.84
2023-05-10T21:51:24.254Z,59.62
2023-05-10T21:53:52.088Z,59.77
2023-05-10T21:56:21.509Z,59.16
2023-05-10T21:58:49.249Z,58.86
2023-05-10T22:01:16.834Z,58.82
2023-05-10T22:03:46.445Z,58.18
2023-05-10T22:06:14.067Z,58.64
2023-05-10T22:08:41.786Z,58.66
2023-05-10T22:11:09.191Z,59.50
2023-05-10T22:13:39.462Z,59.76
2023-05-10T22:16:06.860Z,58.42
2023-05-10T22:18:34.753Z,57.54
2023-05-10T22:21:03.917Z,57.36
2023-05-10T22:23:31.646Z,57.57
2023-05-10T22:26:01.064Z,57.77
2023-05-10T22:28:28.814Z,58.27
2023-05-10T22:30:56.443Z,59.28
2023-05-10T22:33:24.182Z,59.28
2023-05-10T22:35:51.498Z,59.74
2023-05-10T22:38:20.754Z,59.67
2023-05-10T22:40:48.120Z,58.56
2023-05-10T22:43:16.618Z,59.33
2023-05-10T22:45:43.882Z,59.23
2023-05-10T22:48:11.651Z,59.94
2023-05-10T22:50:39.368Z,59.61
2023-05-10T22:53:07.017Z,59.70
2023-05-10T22:55:36.272Z,59.17
2023-05-10T22:58:04.103Z,59.28
2023-05-10T23:00:31.359Z,59.27
2023-05-10T23:02:59.283Z,59.09
2023-05-10T23:05:26.736Z,58.76
2023-05-10T23:07:54.559Z,59.28
2023-05-10T23:10:21.983Z,59.16
2023-05-10T23:12:51.126Z,59.26
2023-05-10T23:15:18.607Z,58.76
2023-05-10T23:17:46.304Z,58.89
2023-05-10T23:20:13.848Z,59.16
2023-05-10T23:22:43.425Z,59.27
2023-05-10T23:25:11.018Z,59.33
2023-05-10T23:27:39.055Z,58.83
2023-05-10T23:30:09.320Z,58.83
2023-05-10T23:32:37.130Z,59.26
2023-05-10T23:35:05.161Z,58.81
2023-05-10T23:37:32.945Z,58.94
2023-05-10T23:40:00.453Z,59.12
2023-05-10T23:42:28.122Z,59.18
2023-05-10T23:44:55.576Z,59.79
2023-05-10T23:47:24.850Z,60.46
2023-05-10T23:49:52.205Z,60.77
2023-05-10T23:52:19.890Z,61.20
2023-05-10T23:54:47.296Z,60.59
2023-05-10T23:57:14.938Z,60.54
2023-05-10T23:59:42.332Z,61.21
